Time;durP1;ratioP1;P1;durP2;ratioP2;P2;SDS_P1;SDS_P2;PMS_P1;PMS_P2;Temp;Humidity;BMP_temperature;BMP_pressure;BME280_temperature;BME280_humidity;BME280_pressure;Samples;Min_cycle;Max_cycle;Signal;HPM_P1;HPM_P2
2021/10/10 00:00:34;;;;;;;;;58.75;46.00;;;;;13.34;82.18;102278.41;4979403;28;45425;-60
2021/10/10 00:02:59;;;;;;;;;60.50;43.25;;;;;13.34;82.36;102285.38;4967911;28;45528;-59
2021/10/10 00:05:24;;;;;;;;;56.50;46.25;;;;;13.35;82.63;102285.38;4966847;28;45521;-59
2021/10/10 00:07:50;;;;;;;;;57.50;45.50;;;;;13.32;82.41;102276.72;4965227;28;46278;-59
2021/10/10 00:10:16;;;;;;;;;60.25;43.75;;;;;13.31;83.53;102282.81;4971478;28;45603;-58
2021/10/10 00:12:42;;;;;;;;;60.50;46.75;;;;;13.27;82.77;102276.78;4971336;28;45836;-59
2021/10/10 00:15:10;;;;;;;;;64.50;45.50;;;;;13.28;82.74;102281.13;4972625;28;45549;-59
2021/10/10 00:17:36;;;;;;;;;49.25;40.00;;;;;13.27;82.42;102275.91;4980269;28;46428;-59
2021/10/10 00:20:04;;;;;;;;;58.50;43.50;;;;;13.24;82.64;102276.84;4974952;28;45498;-58
2021/10/10 00:22:29;;;;;;;;;60.25;45.50;;;;;13.22;82.64;102278.59;4971674;28;45543;-58
2021/10/10 00:24:55;;;;;;;;;60.25;43.25;;;;;13.20;83.00;102279.47;4978608;28;45443;-59
2021/10/10 00:27:21;;;;;;;;;56.00;43.25;;;;;13.18;84.49;102279.50;4978314;28;45512;-59
2021/10/10 00:29:47;;;;;;;;;57.00;45.25;;;;;13.15;82.79;102287.34;4978259;28;45446;-59
2021/10/10 00:32:12;;;;;;;;;55.00;44.00;;;;;13.13;82.69;102278.69;4976941;28;45614;-59
2021/10/10 00:34:37;;;;;;;;;57.75;46.50;;;;;13.09;82.67;102279.63;4978240;28;45464;-59
2021/10/10 00:37:03;;;;;;;;;59.00;46.00;;;;;13.07;82.09;102279.63;4966620;28;46214;-59
2021/10/10 00:39:28;;;;;;;;;57.50;44.00;;;;;13.04;82.73;102274.47;4970900;28;45365;-58
2021/10/10 00:41:54;;;;;;;;;59.25;46.50;;;;;13.05;82.45;102280.53;4972808;28;45512;-59
2021/10/10 00:44:19;;;;;;;;;52.75;41.00;;;;;13.02;82.65;102276.22;4970088;28;45601;-59
2021/10/10 00:46:44;;;;;;;;;63.00;42.75;;;;;12.98;82.44;102274.50;4965895;28;45367;-58
2021/10/10 00:49:10;;;;;;;;;54.25;42.50;;;;;12.98;82.30;102286.69;4967242;28;45257;-58
2021/10/10 00:51:38;;;;;;;;;58.75;45.00;;;;;12.95;82.47;102278.91;4971720;28;45767;-58
2021/10/10 00:54:05;;;;;;;;;55.25;44.00;;;;;12.90;82.74;102281.59;4969737;28;45229;-58
2021/10/10 00:56:31;;;;;;;;;55.50;43.25;;;;;12.83;82.90;102272.13;4968762;28;45471;-58
2021/10/10 00:58:58;;;;;;;;;55.75;42.75;;;;;12.84;82.23;102275.59;4970751;28;45318;-58
2021/10/10 01:01:26;;;;;;;;;58.00;44.25;;;;;12.80;85.50;102277.34;4971144;28;45458;-58
2021/10/10 01:03:51;;;;;;;;;56.50;45.00;;;;;12.76;83.75;102273.94;4971884;28;45506;-59
2021/10/10 01:06:17;;;;;;;;;56.50;43.75;;;;;12.73;83.85;102273.09;4968637;28;46623;-60
2021/10/10 01:08:42;;;;;;;;;60.50;44.25;;;;;12.75;83.66;102276.56;4954712;28;45521;-59
2021/10/10 01:11:10;;;;;;;;;62.25;46.75;;;;;12.76;83.69;102280.88;4973516;28;45561;-58
2021/10/10 01:13:36;;;;;;;;;58.50;43.50;;;;;12.74;83.63;102275.69;4968430;28;45369;-58
2021/10/10 01:16:02;;;;;;;;;59.75;45.00;;;;;12.76;83.91;102280.88;4972553;28;46779;-58
2021/10/10 01:18:27;;;;;;;;;59.75;44.50;;;;;12.74;84.07;102280.03;4969263;28;45425;-58
2021/10/10 01:20:54;;;;;;;;;60.00;45.75;;;;;12.75;83.66;102281.78;4968819;28;45312;-58
2021/10/10 01:23:20;;;;;;;;;60.50;44.75;;;;;12.73;83.82;102276.56;4970600;28;45417;-58
2021/10/10 01:25:46;;;;;;;;;63.50;47.50;;;;;12.69;84.14;102272.28;4970151;28;45530;-58
2021/10/10 01:28:11;;;;;;;;;59.25;45.50;;;;;12.70;83.93;102271.41;4968148;28;45215;-58
2021/10/10 01:30:37;;;;;;;;;57.50;44.75;;;;;12.69;84.10;102272.28;4970248;28;45183;-59
2021/10/10 01:33:06;;;;;;;;;65.50;48.50;;;;;12.67;84.31;102275.78;4979804;28;45259;-59
2021/10/10 01:35:32;;;;;;;;;58.50;45.50;;;;;12.63;84.08;102271.50;4979643;28;46294;-59
2021/10/10 01:37:57;;;;;;;;;64.50;48.50;;;;;12.66;84.23;102274.94;4979885;28;45320;-58
2021/10/10 01:40:22;;;;;;;;;60.50;47.75;;;;;12.65;84.16;102267.13;4978524;28;45457;-59
2021/10/10 01:42:48;;;;;;;;;63.00;46.50;;;;;12.64;84.11;102270.63;4979865;28;45410;-59
2021/10/10 01:45:19;;;;;;;;;56.75;45.25;;;;;12.61;84.21;102262.78;4979244;28;45508;-59
2021/10/10 01:47:44;;;;;;;;;64.25;47.00;;;;;12.61;84.16;102266.28;4979706;28;45361;-59
2021/10/10 01:50:10;;;;;;;;;56.50;45.25;;;;;12.60;84.23;102255.84;4979807;28;45401;-59
2021/10/10 01:52:39;;;;;;;;;60.00;43.25;;;;;12.58;84.45;102262.84;4979920;28;45302;-59
2021/10/10 01:55:05;;;;;;;;;56.75;43.50;;;;;12.54;84.39;102256.81;4966987;28;46343;-59
2021/10/10 01:57:30;;;;;;;;;58.50;44.25;;;;;12.53;84.26;102249.84;4979419;28;45269;-59
2021/10/10 01:59:56;;;;;;;;;63.75;48.25;;;;;12.54;84.00;102258.53;4979223;28;45475;-59
2021/10/10 02:02:21;;;;;;;;;59.50;45.75;;;;;12.52;84.31;102249.88;4982743;28;45453;-59
2021/10/10 02:04:46;;;;;;;;;63.25;47.00;;;;;12.49;84.33;102251.66;4982837;28;45377;-59
2021/10/10 02:07:12;;;;;;;;;59.00;44.75;;;;;12.48;85.24;102249.06;4983191;28;45231;-59
2021/10/10 02:09:41;;;;;;;;;60.25;45.00;;;;;12.44;84.85;102247.38;4982710;28;45257;-59
2021/10/10 02:12:06;;;;;;;;;63.75;45.75;;;;;12.40;85.02;102246.50;4983005;28;45401;-59
2021/10/10 02:14:32;;;;;;;;;58.75;47.00;;;;;12.40;85.12;102249.13;4982494;28;45641;-59
2021/10/10 02:16:57;;;;;;;;;60.25;45.75;;;;;12.38;85.03;102248.28;4982220;28;45441;-59
2021/10/10 02:19:22;;;;;;;;;62.00;45.75;;;;;12.34;85.87;102245.72;4982728;28;45433;-59
2021/10/10 02:21:48;;;;;;;;;62.25;47.25;;;;;12.34;85.48;102243.13;4982894;28;45488;-59
2021/10/10 02:24:13;;;;;;;;;61.75;46.50;;;;;12.32;85.47;102250.97;4982758;28;45308;-60
2021/10/10 02:26:38;;;;;;;;;59.00;45.00;;;;;12.29;85.89;102244.91;4982850;28;45367;-59
2021/10/10 02:29:04;;;;;;;;;57.50;44.00;;;;;12.25;86.38;102248.44;4964996;28;45376;-59
2021/10/10 02:31:29;;;;;;;;;63.00;46.00;;;;;12.20;86.42;102256.28;4982664;28;45388;-59
2021/10/10 02:33:55;;;;;;;;;53.00;38.25;;;;;12.14;87.42;102256.34;4982265;28;46084;-59
2021/10/10 02:36:20;;;;;;;;;56.50;44.25;;;;;12.08;87.20;102266.84;4982553;28;45219;-59
2021/10/10 02:38:45;;;;;;;;;59.75;45.50;;;;;12.06;86.98;102264.25;4982472;28;45163;-59
2021/10/10 02:41:11;;;;;;;;;55.25;43.75;;;;;12.06;88.00;102263.41;4982460;28;45496;-59
2021/10/10 02:43:36;;;;;;;;;57.50;44.50;;;;;12.00;87.45;102272.09;4982227;28;45506;-59
2021/10/10 02:46:01;;;;;;;;;59.50;45.25;;;;;11.97;88.37;102261.72;4982179;28;45286;-59
2021/10/10 02:48:27;;;;;;;;;59.75;44.50;;;;;11.94;88.00;102255.69;4982145;28;45356;-59
2021/10/10 02:50:52;;;;;;;;;58.75;45.75;;;;;11.90;87.66;102249.63;4982249;28;45238;-59
2021/10/10 02:53:17;;;;;;;;;64.00;48.25;;;;;11.87;86.63;102255.75;4982160;28;45379;-58
2021/10/10 02:55:43;;;;;;;;;60.00;46.00;;;;;11.82;87.01;102252.31;4982252;28;45299;-59
2021/10/10 02:58:08;;;;;;;;;58.25;44.50;;;;;11.84;86.79;102249.69;4982267;28;45293;-59
2021/10/10 03:00:33;;;;;;;;;58.75;43.75;;;;;11.83;87.34;102255.78;4981737;28;45223;-59
2021/10/10 03:02:59;;;;;;;;;53.00;38.25;;;;;11.80;87.30;102254.03;4981817;28;45435;-59
2021/10/10 03:05:24;;;;;;;;;55.00;41.25;;;;;11.80;87.27;102256.66;4981909;28;45504;-59
2021/10/10 03:07:50;;;;;;;;;60.50;46.00;;;;;11.78;87.76;102258.41;4981954;28;45336;-59
2021/10/10 03:10:15;;;;;;;;;56.75;43.25;;;;;11.78;88.29;102258.41;4981844;28;45451;-59
2021/10/10 03:12:40;;;;;;;;;58.75;45.00;;;;;11.78;87.56;102254.91;4980880;28;46671;-58
2021/10/10 03:15:06;;;;;;;;;58.75;44.50;;;;;11.77;87.60;102256.63;4981627;28;45491;-58
2021/10/10 03:17:32;;;;;;;;;62.75;48.25;;;;;11.76;87.53;102257.53;4979841;28;45701;-59
2021/10/10 03:19:57;;;;;;;;;56.50;45.75;;;;;11.75;87.87;102253.19;4981911;28;45321;-59
2021/10/10 03:22:23;;;;;;;;;66.25;47.00;;;;;11.73;88.47;102254.09;4981724;28;45442;-58
2021/10/10 03:24:49;;;;;;;;;58.75;44.25;;;;;11.71;88.37;102258.44;4981858;28;45461;-59
2021/10/10 03:27:14;;;;;;;;;58.25;44.50;;;;;11.67;88.36;102260.22;4981824;28;45353;-58
2021/10/10 03:29:40;;;;;;;;;59.50;47.00;;;;;11.63;88.71;102250.69;4981273;28;45296;-60
2021/10/10 03:32:05;;;;;;;;;61.50;47.00;;;;;11.65;88.68;102259.38;4963711;28;46989;-60
2021/10/10 03:34:31;;;;;;;;;62.25;47.50;;;;;11.63;88.44;102253.31;4981681;28;45305;-60
2021/10/10 03:36:56;;;;;;;;;60.00;46.25;;;;;11.59;88.81;102252.44;4981672;28;45213;-60
2021/10/10 03:39:21;;;;;;;;;57.75;45.00;;;;;11.63;88.67;102257.66;4981679;28;45165;-61
2021/10/10 03:41:47;;;;;;;;;58.50;45.00;;;;;11.62;88.88;102253.31;4981415;28;45441;-59
2021/10/10 03:44:12;;;;;;;;;58.75;45.25;;;;;11.61;88.63;102247.22;4980666;28;45278;-59
2021/10/10 03:46:38;;;;;;;;;63.00;46.00;;;;;11.62;88.91;102248.13;4981268;28;45278;-59
2021/10/10 03:49:03;;;;;;;;;57.75;45.25;;;;;11.62;88.52;102246.38;4981082;28;45167;-59
2021/10/10 03:51:29;;;;;;;;;59.25;44.50;;;;;11.61;88.69;102255.03;4980853;28;45438;-59
2021/10/10 03:56:38;;;;;;;;;63.00;46.50;;;;;11.57;88.99;102253.31;4980883;28;45311;-59
2021/10/10 03:59:03;;;;;;;;;56.25;44.50;;;;;11.57;88.90;102255.94;4980557;28;45653;-60
2021/10/10 04:01:29;;;;;;;;;57.75;43.25;;;;;11.55;89.14;102253.34;4980730;28;45691;-60
2021/10/10 04:03:54;;;;;;;;;60.00;44.75;;;;;11.54;89.17;102255.97;4980863;28;45259;-60
2021/10/10 04:06:19;;;;;;;;;61.00;48.75;;;;;11.51;89.34;102250.78;4981211;28;45297;-59
2021/10/10 04:08:45;;;;;;;;;58.50;46.50;;;;;11.49;89.46;102250.78;4980812;28;45462;-59
2021/10/10 04:11:11;;;;;;;;;61.00;46.25;;;;;11.48;89.66;102256.88;4980705;28;45294;-60
2021/10/10 04:13:40;;;;;;;;;60.50;44.25;;;;;11.45;89.62;102256.03;4980808;28;45753;-59
2021/10/10 04:16:05;;;;;;;;;58.75;44.75;;;;;11.42;89.86;102253.47;4980860;28;45307;-59
2021/10/10 04:18:30;;;;;;;;;59.25;45.00;;;;;11.40;90.09;102257.78;4980477;28;45596;-59
2021/10/10 04:20:58;;;;;;;;;60.50;47.00;;;;;11.40;89.78;102261.25;4980776;28;45315;-60
2021/10/10 04:23:24;;;;;;;;;65.25;44.75;;;;;11.40;89.49;102258.66;4980567;28;45323;-60
2021/10/10 04:25:49;;;;;;;;;59.00;45.75;;;;;11.41;89.54;102267.31;4981004;28;45173;-60
2021/10/10 04:28:14;;;;;;;;;54.50;45.00;;;;;11.38;90.00;102275.16;4980803;28;45313;-60
2021/10/10 04:30:40;;;;;;;;;60.25;46.25;;;;;11.32;89.53;102262.19;4980265;28;46373;-61
2021/10/10 04:33:05;;;;;;;;;59.50;47.75;;;;;11.34;89.83;102276.06;4959875;28;45422;-60
2021/10/10 04:35:30;;;;;;;;;64.25;47.00;;;;;11.29;89.95;102263.06;4979433;28;45877;-60
2021/10/10 04:37:56;;;;;;;;;59.50;45.50;;;;;11.30;89.95;102269.16;4980819;28;45436;-59
2021/10/10 04:40:21;;;;;;;;;62.25;46.25;;;;;11.31;90.07;102263.94;4980313;28;45332;-59
2021/10/10 04:42:47;;;;;;;;;62.00;47.00;;;;;11.29;90.41;102270.88;4980605;28;45330;-59
2021/10/10 04:45:12;;;;;;;;;63.25;46.75;;;;;11.27;90.18;102275.22;4980257;28;45456;-64
2021/10/10 04:47:38;;;;;;;;;62.25;48.00;;;;;11.24;90.02;102276.13;4980323;28;45416;-60
2021/10/10 04:50:07;;;;;;;;;65.25;48.00;;;;;11.23;90.94;102273.53;4962552;28;48200;-60
2021/10/10 04:52:32;;;;;;;;;60.25;46.00;;;;;11.19;89.86;102272.66;4980539;28;45860;-60
2021/10/10 04:54:58;;;;;;;;;65.00;48.50;;;;;11.16;90.03;102267.47;4980379;28;45310;-60
2021/10/10 04:57:23;;;;;;;;;59.50;47.00;;;;;11.16;89.96;102277.88;4980492;28;45317;-60
2021/10/10 04:59:52;;;;;;;;;64.75;49.25;;;;;11.12;90.06;102276.16;4979852;28;46161;-60
2021/10/10 05:02:19;;;;;;;;;65.75;47.00;;;;;11.12;89.97;102276.16;4980216;28;45329;-60
2021/10/10 05:04:45;;;;;;;;;61.25;47.25;;;;;11.12;90.06;102273.56;4980447;28;45523;-60
2021/10/10 05:07:10;;;;;;;;;63.00;46.00;;;;;11.12;89.83;102270.97;4980438;28;45443;-60
2021/10/10 05:09:36;;;;;;;;;60.50;46.25;;;;;11.12;89.82;102270.97;4979553;28;46559;-60
2021/10/10 05:12:01;;;;;;;;;58.25;44.50;;;;;11.13;89.69;102271.84;4980204;28;45216;-60
2021/10/10 05:14:27;;;;;;;;;59.25;46.25;;;;;11.10;89.59;102264.06;4979976;28;45473;-60
2021/10/10 05:16:52;;;;;;;;;61.75;45.00;;;;;11.06;90.26;102268.41;4980181;28;45381;-60
2021/10/10 05:19:17;;;;;;;;;56.50;39.75;;;;;11.03;89.49;102265.81;4978962;28;45343;-60
2021/10/10 05:21:43;;;;;;;;;60.50;46.00;;;;;11.07;89.73;102269.28;4980354;28;45255;-60
2021/10/10 05:24:08;;;;;;;;;56.50;42.50;;;;;11.06;89.45;102264.94;4980104;28;45409;-60
2021/10/10 05:26:33;;;;;;;;;60.75;46.75;;;;;11.06;89.88;102271.00;4980194;28;45263;-60
2021/10/10 05:28:59;;;;;;;;;66.75;49.00;;;;;11.06;89.48;102273.63;4979399;28;45323;-60
2021/10/10 05:31:24;;;;;;;;;62.75;47.25;;;;;11.07;89.30;102269.28;4980111;28;45203;-60
2021/10/10 05:33:49;;;;;;;;;59.50;46.75;;;;;11.07;89.39;102277.94;4979736;28;45336;-60
2021/10/10 05:36:15;;;;;;;;;55.75;43.25;;;;;11.07;89.58;102280.53;4981974;28;45461;-60
2021/10/10 05:38:40;;;;;;;;;63.75;46.25;;;;;11.06;89.69;102275.34;4983101;28;46309;-61
2021/10/10 05:41:05;;;;;;;;;59.00;47.00;;;;;11.04;89.57;102272.75;4983486;28;45258;-61
2021/10/10 05:43:31;;;;;;;;;59.75;45.50;;;;;11.04;90.01;102274.50;4982971;28;45645;-61
2021/10/10 05:45:57;;;;;;;;;63.00;45.75;;;;;11.04;90.01;102279.69;4983222;28;45541;-62
2021/10/10 05:48:22;;;;;;;;;62.75;46.00;;;;;11.00;89.67;102272.75;4981441;28;47248;-61
2021/10/10 05:50:48;;;;;;;;;64.25;45.00;;;;;11.00;89.17;102276.22;4983048;28;45322;-64
2021/10/10 05:53:13;;;;;;;;;53.00;45.25;;;;;10.99;89.62;102284.91;4983025;28;45333;-62
2021/10/10 05:55:40;;;;;;;;;58.25;44.75;;;;;10.98;89.32;102290.97;4983155;28;45418;-61
2021/10/10 05:58:08;;;;;;;;;64.25;47.50;;;;;10.95;89.55;102296.19;4982786;28;45715;-60
2021/10/10 06:00:33;;;;;;;;;62.00;44.25;;;;;10.94;89.91;102297.94;4982676;28;45452;-61
2021/10/10 06:02:59;;;;;;;;;65.25;47.50;;;;;10.94;89.84;102290.13;4982643;28;45271;-62
2021/10/10 06:05:24;;;;;;;;;57.00;44.33;;;;;10.94;90.05;102289.25;4977462;28;45529;-63
2021/10/10 06:07:49;;;;;;;;;59.00;42.75;;;;;10.91;90.25;102295.34;4971397;28;45414;-66
2021/10/10 06:10:15;;;;;;;;;57.00;44.25;;;;;10.91;90.01;102291.88;4977916;28;45285;-61
2021/10/10 06:12:41;;;;;;;;;67.00;48.50;;;;;10.91;90.35;102289.28;4974689;28;45369;-62
2021/10/10 06:15:09;;;;;;;;;58.00;45.00;;;;;10.91;90.00;102297.09;4971480;28;45261;-62
2021/10/10 06:17:35;;;;;;;;;58.50;42.00;;;;;10.92;89.85;102293.59;4972618;28;46235;-60
2021/10/10 06:20:04;;;;;;;;;65.00;47.75;;;;;10.93;89.46;102295.34;4971385;28;45818;-61
2021/10/10 06:22:29;;;;;;;;;67.25;49.75;;;;;10.90;89.85;102295.34;4975006;28;45228;-59
2021/10/10 06:24:54;;;;;;;;;56.25;41.00;;;;;10.91;90.12;102300.56;4971232;28;45480;-60
2021/10/10 06:27:20;;;;;;;;;62.50;46.50;;;;;10.91;89.37;102305.75;4971752;28;45465;-58
2021/10/10 06:29:45;;;;;;;;;66.25;45.75;;;;;10.89;89.15;102302.28;4974593;28;45849;-58
2021/10/10 06:32:11;;;;;;;;;58.75;47.25;;;;;10.91;89.21;102302.28;4974651;28;45347;-59
2021/10/10 06:34:36;;;;;;;;;62.00;47.50;;;;;10.90;89.11;102310.97;4972170;28;45318;-59
2021/10/10 06:37:02;;;;;;;;;61.50;43.00;;;;;10.87;89.75;102304.03;4975593;28;45258;-60
2021/10/10 06:39:27;;;;;;;;;56.25;45.00;;;;;10.93;89.75;102316.16;4974004;28;45334;-57
2021/10/10 06:41:52;;;;;;;;;61.25;49.00;;;;;10.91;90.34;102316.16;4982378;28;45339;-59
2021/10/10 06:44:18;;;;;;;;;60.75;46.25;;;;;10.90;89.81;102316.16;4982283;28;45462;-59
2021/10/10 06:46:44;;;;;;;;;58.75;46.00;;;;;10.94;90.62;102323.06;4964112;28;47546;-61
2021/10/10 06:49:11;;;;;;;;;64.75;50.50;;;;;10.94;89.60;102321.34;4981900;28;45743;-61
2021/10/10 06:51:36;;;;;;;;;64.25;48.50;;;;;10.96;90.16;102323.94;4975020;28;46414;-60
2021/10/10 06:54:02;;;;;;;;;63.50;44.00;;;;;10.98;90.15;102320.44;4970514;28;45480;-59
2021/10/10 06:56:27;;;;;;;;;59.25;45.75;;;;;10.97;90.34;102323.06;4969280;28;45538;-58
2021/10/10 06:58:53;;;;;;;;;61.00;46.75;;;;;11.02;89.48;102326.53;4973503;28;45368;-59
2021/10/10 07:01:19;;;;;;;;;59.00;46.50;;;;;11.05;89.56;102323.06;4978391;28;45268;-57
2021/10/10 07:03:44;;;;;;;;;65.50;48.25;;;;;11.12;89.84;102319.53;4977789;28;45315;-58
2021/10/10 07:06:09;;;;;;;;;63.25;47.25;;;;;11.18;89.69;102324.72;4975587;28;46581;-58
2021/10/10 07:08:35;;;;;;;;;60.50;47.50;;;;;11.22;89.45;102314.31;4955422;28;46068;-59
2021/10/10 07:11:00;;;;;;;;;64.00;47.25;;;;;11.28;90.29;102319.47;4979686;28;45410;-59
2021/10/10 07:13:26;;;;;;;;;60.75;44.25;;;;;11.34;89.81;102323.75;4977595;28;45377;-58
2021/10/10 07:15:54;;;;;;;;;64.75;47.75;;;;;11.38;89.49;102322.88;4970909;28;45373;-58
2021/10/10 07:18:24;;;;;;;;;60.25;47.25;;;;;11.44;89.15;102319.38;4970449;28;45469;-60
2021/10/10 07:23:44;;;;;;;;;59.25;44.75;;;;;11.65;88.77;102337.50;4970199;28;45421;-60
2021/10/10 07:26:10;;;;;;;;;63.75;45.75;;;;;11.74;88.67;102342.63;4970672;28;46388;-61
2021/10/10 07:28:36;;;;;;;;;67.00;47.00;;;;;11.82;88.31;102338.28;4972207;28;45620;-61
2021/10/10 07:31:02;;;;;;;;;63.25;46.00;;;;;11.86;87.79;102341.72;4971663;28;45684;-61
2021/10/10 07:33:28;;;;;;;;;66.25;45.25;;;;;11.89;87.84;102339.09;4971765;28;45357;-61
2021/10/10 07:35:53;;;;;;;;;64.25;48.25;;;;;11.96;87.60;102339.91;4972618;28;46159;-61
2021/10/10 07:38:18;;;;;;;;;61.50;46.00;;;;;11.99;87.29;102329.44;4971879;28;45315;-61
2021/10/10 07:40:44;;;;;;;;;65.25;48.50;;;;;12.09;87.37;102338.94;4972261;28;45354;-63
2021/10/10 07:43:09;;;;;;;;;60.75;45.50;;;;;12.21;87.01;102332.72;4957775;28;45512;-58
2021/10/10 07:45:41;;;;;;;;;62.00;47.00;;;;;12.27;86.23;102330.97;4971446;28;46305;-59
2021/10/10 07:48:06;;;;;;;;;63.25;48.50;;;;;12.40;86.26;102342.97;4974367;28;45374;-59
2021/10/10 07:50:32;;;;;;;;;57.25;44.50;;;;;12.52;85.88;102348.97;4971155;28;45345;-60
2021/10/10 07:52:57;;;;;;;;;61.75;47.75;;;;;12.60;85.38;102355.81;4963890;28;45585;-59
2021/10/10 07:55:22;;;;;;;;;60.00;45.75;;;;;12.68;85.13;102358.38;4980917;28;46477;-59
2021/10/10 07:57:48;;;;;;;;;58.50;46.00;;;;;12.74;84.84;102350.47;4962501;28;45331;-60
2021/10/10 08:00:14;;;;;;;;;59.50;46.50;;;;;12.84;84.42;102359.09;4970180;28;46000;-60
2021/10/10 08:02:53;;;;;;;;;65.25;47.25;;;;;12.88;84.17;102358.16;4951299;28;45331;-60
2021/10/10 08:05:20;;;;;;;;;63.50;49.75;;;;;12.89;84.06;102350.31;4951178;28;46148;-59
2021/10/10 08:07:46;;;;;;;;;63.75;49.25;;;;;12.96;83.88;102359.78;4951768;28;45433;-61
2021/10/10 08:10:11;;;;;;;;;62.25;47.25;;;;;13.02;83.66;102351.91;4953153;28;45537;-64
2021/10/10 08:12:37;;;;;;;;;63.25;46.25;;;;;13.16;83.54;102356.09;4961197;28;45525;-63
2021/10/10 08:15:03;;;;;;;;;66.00;46.50;;;;;13.27;82.79;102360.34;4960488;28;46206;-61
2021/10/10 08:17:28;;;;;;;;;68.50;49.50;;;;;13.35;81.98;102368.91;4960363;28;45337;-61
2021/10/10 08:19:54;;;;;;;;;68.75;49.25;;;;;13.35;81.26;102376.75;4961251;28;45328;-62
2021/10/10 08:22:19;;;;;;;;;58.50;44.75;;;;;13.35;82.21;102365.44;4958485;28;45279;-62
2021/10/10 08:24:45;;;;;;;;;60.50;46.75;;;;;13.45;81.61;102377.50;4959622;28;46081;-62
2021/10/10 08:27:10;;;;;;;;;67.00;48.00;;;;;13.48;81.45;102380.09;4960780;28;45294;-62
2021/10/10 08:29:35;;;;;;;;;63.50;47.50;;;;;13.52;81.47;102379.16;4960868;28;45193;-62
2021/10/10 08:32:01;;;;;;;;;64.25;47.25;;;;;13.62;81.86;102372.06;4960498;28;45291;-63
2021/10/10 08:34:26;;;;;;;;;64.75;49.25;;;;;13.71;81.29;102369.31;4960879;28;46497;-63
2021/10/10 08:36:51;;;;;;;;;60.25;44.25;;;;;13.77;81.10;102358.75;4960586;28;45245;-62
2021/10/10 08:39:22;;;;;;;;;59.25;46.00;;;;;13.83;80.82;102353.47;4961012;28;45466;-62
2021/10/10 08:41:51;;;;;;;;;64.00;47.50;;;;;13.97;80.53;102348.84;4960761;28;45432;-62
2021/10/10 08:44:19;;;;;;;;;67.25;50.75;;;;;14.13;80.26;102339.03;4960364;28;46416;-65
2021/10/10 08:46:45;;;;;;;;;56.75;40.00;;;;;14.31;79.68;102338.72;4960315;28;45727;-65
2021/10/10 08:49:11;;;;;;;;;57.25;46.50;;;;;14.43;79.03;102342.91;4960532;28;45384;-64
2021/10/10 08:51:38;;;;;;;;;66.50;46.00;;;;;14.60;78.68;102345.19;4960424;28;45347;-65
2021/10/10 08:54:04;;;;;;;;;70.00;51.00;;;;;14.75;78.29;102357.13;4960321;28;47189;-63
2021/10/10 08:56:29;;;;;;;;;55.75;45.25;;;;;14.87;75.84;102377.84;4960121;28;45242;-62
2021/10/10 08:58:56;;;;;;;;;56.50;45.75;;;;;14.82;74.88;102377.94;4960463;28;45308;-61
2021/10/10 09:01:33;;;;;;;;;59.50;45.50;;;;;14.81;76.31;102375.34;4958786;28;45932;-61
2021/10/10 09:03:59;;;;;;;;;60.25;44.25;;;;;14.83;76.32;102382.28;4959979;28;46946;-64
2021/10/10 09:06:24;;;;;;;;;59.00;44.00;;;;;14.87;75.61;102370.88;4953503;28;45270;-61
2021/10/10 09:08:52;;;;;;;;;59.75;45.50;;;;;14.93;76.10;102369.00;4953850;28;45489;-63
2021/10/10 09:11:17;;;;;;;;;56.50;43.00;;;;;14.98;76.19;102372.41;4949476;28;45577;-74
2021/10/10 09:13:43;;;;;;;;;57.25;45.50;;;;;15.15;74.54;102375.53;4930927;28;47698;-67
2021/10/10 09:16:10;;;;;;;;;57.00;43.75;;;;;15.29;75.69;102368.28;4950676;28;45283;-67
2021/10/10 09:18:39;;;;;;;;;58.75;42.75;;;;;15.49;75.08;102380.94;4949719;28;45559;-69
2021/10/10 09:21:22;;;;;;;;;53.25;39.50;;;;;15.55;74.15;102391.28;4949705;28;45496;-71
2021/10/10 09:23:54;;;;;;;;;62.75;45.25;;;;;15.59;74.50;102392.97;4950911;28;45805;-70
2021/10/10 09:26:21;;;;;;;;;51.25;42.00;;;;;15.58;72.92;102378.13;4948459;28;45753;-69
2021/10/10 09:28:47;;;;;;;;;50.25;38.00;;;;;15.62;71.46;102392.94;4933873;28;45660;-67
2021/10/10 09:31:14;;;;;;;;;52.50;38.00;;;;;15.65;72.42;102389.38;4949200;28;45343;-64
2021/10/10 09:33:51;;;;;;;;;54.50;42.00;;;;;15.70;72.50;102392.75;4948117;28;45291;-62
2021/10/10 09:36:21;;;;;;;;;49.50;37.25;;;;;15.79;70.26;102392.53;4949751;28;45952;-62
2021/10/10 09:44:13;;;;;;;;;47.50;34.75;;;;;15.81;70.00;102386.34;4951867;28;45974;-61
2021/10/10 09:46:42;;;;;;;;;48.75;39.75;;;;;15.86;70.56;102380.16;4949358;28;45817;-60
2021/10/10 09:49:23;;;;;;;;;41.50;35.25;;;;;16.07;71.36;102384.91;4948081;28;45366;-62
2021/10/10 09:51:50;;;;;;;;;41.50;34.75;;;;;16.51;69.31;102383.78;4948290;28;45593;-61
2021/10/10 09:54:16;;;;;;;;;44.00;35.00;;;;;17.03;69.90;102377.16;4949731;28;46469;-62
2021/10/10 09:57:02;;;;;;;;;48.50;39.00;;;;;17.20;69.19;102388.03;4948019;28;45410;-49
2021/10/10 09:59:28;;;;;;;;;51.00;40.25;;;;;17.31;67.48;102385.09;4949545;28;45561;-59
2021/10/10 10:01:53;;;;;;;;;54.75;42.25;;;;;17.68;69.43;102389.28;4948071;28;45362;-60
2021/10/10 10:04:18;;;;;;;;;53.50;40.00;;;;;19.10;68.84;102383.59;4947045;28;46245;-61
2021/10/10 10:06:44;;;;;;;;;45.00;38.00;;;;;20.21;63.84;102382.78;4948297;28;46024;-62
2021/10/10 10:09:11;;;;;;;;;50.75;36.50;;;;;20.69;62.46;102385.16;4954025;28;45447;-61
2021/10/10 10:11:39;;;;;;;;;46.50;34.25;;;;;20.75;57.28;102387.53;4950449;28;45294;-60
2021/10/10 10:14:09;;;;;;;;;46.50;37.25;;;;;20.91;61.62;102387.72;4954111;28;46432;-60
2021/10/10 10:16:40;;;;;;;;;48.50;37.50;;;;;21.39;58.89;102397.84;4959268;28;45973;-59
2021/10/10 10:19:10;;;;;;;;;51.00;37.75;;;;;21.00;54.00;102389.06;4958903;28;45472;-60
2021/10/10 10:21:35;;;;;;;;;51.75;41.25;;;;;20.45;57.77;102391.50;4960261;28;45384;-60
2021/10/10 10:24:03;;;;;;;;;46.50;38.50;;;;;20.02;56.29;102390.59;4962363;28;46608;-60
2021/10/10 10:26:34;;;;;;;;;47.75;38.50;;;;;19.97;57.91;102393.41;4962176;28;45262;-60
2021/10/10 10:29:02;;;;;;;;;43.75;35.00;;;;;20.03;54.75;102397.63;4949463;28;45784;-61
2021/10/10 10:31:30;;;;;;;;;42.25;34.50;;;;;19.83;57.67;102389.63;4951144;28;45449;-70
2021/10/10 10:34:25;;;;;;;;;25.00;25.00;;;;;19.88;59.22;102393.81;4952611;28;45454;-61
2021/10/10 10:36:50;;;;;;;;;40.50;32.50;;;;;20.87;58.65;102394.06;4954176;28;45795;-63
2021/10/10 10:39:34;;;;;;;;;39.25;33.75;;;;;21.33;54.52;102399.94;4953041;28;45219;-64
2021/10/10 10:42:00;;;;;;;;;35.50;32.25;;;;;21.10;56.02;102403.59;4952597;28;45313;-63
2021/10/10 10:44:36;;;;;;;;;39.00;32.50;;;;;20.99;54.38;102409.34;4945588;28;45516;-61
2021/10/10 10:47:12;;;;;;;;;41.75;34.00;;;;;20.79;55.34;102404.94;4965818;28;45855;-61
2021/10/10 10:49:59;;;;;;;;;34.75;32.50;;;;;20.50;54.45;102405.38;4951696;28;45606;-61
2021/10/10 10:52:37;;;;;;;;;29.50;27.25;;;;;20.42;55.17;102399.53;4946874;28;45952;-67
2021/10/10 10:55:05;;;;;;;;;38.50;31.50;;;;;21.85;53.68;102403.63;4949726;28;45482;-67
2021/10/10 10:57:31;;;;;;;;;32.75;30.25;;;;;21.70;53.22;102397.28;4951420;28;45569;-67
2021/10/10 11:00:05;;;;;;;;;33.25;29.75;;;;;21.74;49.40;102393.56;4951362;28;45540;-68
2021/10/10 11:02:56;;;;;;;;;32.25;30.00;;;;;22.53;47.06;102396.72;4952897;28;45264;-65
2021/10/10 11:05:28;;;;;;;;;33.50;30.50;;;;;21.77;50.36;102396.06;4945168;28;48219;-64
2021/10/10 11:07:54;;;;;;;;;37.75;30.25;;;;;21.08;49.19;102394.88;4952621;28;46080;-65
2021/10/10 11:10:19;;;;;;;;;32.75;28.50;;;;;20.53;51.02;102392.88;4952303;28;45530;-65
2021/10/10 11:12:51;;;;;;;;;28.25;26.50;;;;;20.15;50.05;102396.22;4952567;28;45478;-68
2021/10/10 11:15:16;;;;;;;;;34.00;31.50;;;;;19.92;51.56;102397.16;4950686;28;45504;-66
2021/10/10 11:17:53;;;;;;;;;37.50;32.25;;;;;19.72;52.31;102383.00;4951053;28;45452;-67